createdAt,value
2018-07-01T00:00:13.509Z,15.30
2018-07-01T00:02:41.574Z,15.40
2018-07-01T00:05:10.049Z,15.50
2018-07-01T00:07:38.028Z,15.50
2018-07-01T00:10:07.444Z,15.50
2018-07-01T00:12:35.725Z,15.50
2018-07-01T00:15:04.404Z,15.30
2018-07-01T00:17:32.470Z,15.40
2018-07-01T00:20:00.367Z,15.40
2018-07-01T00:22:28.305Z,15.20
2018-07-01T00:24:56.261Z,15.30
2018-07-01T00:27:24.184Z,15.30
2018-07-01T00:29:52.090Z,15.20
2018-07-01T00:32:20.017Z,15.30
2018-07-01T00:34:48.012Z,15.40
2018-07-01T00:37:15.910Z,15.10
2018-07-01T00:42:11.625Z,15.30
2018-07-01T00:44:39.608Z,15.30
2018-07-01T00:47:07.450Z,15.30
2018-07-01T00:49:35.370Z,15.30
2018-07-01T00:52:03.302Z,15.20
2018-07-01T00:54:31.213Z,15.30
2018-07-01T00:56:59.149Z,15.30
2018-07-01T00:59:26.994Z,15.10
2018-07-01T01:01:55.489Z,15.10
2018-07-01T01:04:23.441Z,15.10
2018-07-01T01:06:51.340Z,15.10
2018-07-01T01:09:19.232Z,14.90
2018-07-01T01:11:47.175Z,14.80
2018-07-01T01:14:15.113Z,14.80
2018-07-01T01:16:43.028Z,14.80
2018-07-01T01:19:10.965Z,14.70
2018-07-01T01:21:38.897Z,14.50
2018-07-01T01:24:06.777Z,14.30
2018-07-01T01:26:34.636Z,14.20
2018-07-01T01:29:02.666Z,14.20
2018-07-01T01:31:30.881Z,14.10
2018-07-01T01:33:59.012Z,13.90
2018-07-01T01:36:29.053Z,14.00
2018-07-01T01:38:59.478Z,13.90
2018-07-01T01:41:32.819Z,13.90
2018-07-01T01:45:04.082Z,13.80
2018-07-01T01:48:34.929Z,13.60
2018-07-01T01:51:09.774Z,13.60
2018-07-01T01:53:43.289Z,13.60
2018-07-01T01:56:21.689Z,13.60
2018-07-01T01:59:01.096Z,13.60
2018-07-01T02:01:32.336Z,13.50
2018-07-01T02:04:09.877Z,13.40
2018-07-01T02:06:40.925Z,13.30
2018-07-01T02:09:17.153Z,13.40
2018-07-01T02:11:47.778Z,13.30
2018-07-01T02:14:22.649Z,13.40
2018-07-01T02:16:53.413Z,13.30
2018-07-01T02:19:21.405Z,13.20
2018-07-01T02:21:49.538Z,13.50
2018-07-01T02:24:22.031Z,13.40
2018-07-01T02:26:49.917Z,13.40
2018-07-01T02:29:17.877Z,13.30
2018-07-01T02:31:45.705Z,13.30
2018-07-01T02:34:13.620Z,13.40
2018-07-01T02:36:41.504Z,13.30
2018-07-01T02:39:10.069Z,13.10
2018-07-01T02:41:38.526Z,12.90
2018-07-01T02:44:06.723Z,12.80
2018-07-01T02:46:34.601Z,12.70
2018-07-01T02:49:02.893Z,12.80
2018-07-01T02:51:30.865Z,12.80
2018-07-01T02:53:58.774Z,12.90
2018-07-01T02:56:26.731Z,13.10
2018-07-01T02:58:54.589Z,12.90
2018-07-01T03:01:22.505Z,12.90
2018-07-01T03:03:50.442Z,12.70
2018-07-01T03:06:18.397Z,12.70
2018-07-01T03:08:46.316Z,12.60
2018-07-01T03:13:42.281Z,12.30
2018-07-01T03:16:10.152Z,12.30
2018-07-01T03:18:38.005Z,12.30
2018-07-01T03:21:05.933Z,12.30
2018-07-01T03:23:33.841Z,12.20
2018-07-01T03:26:01.714Z,12.10
2018-07-01T03:28:29.612Z,12.00
2018-07-01T03:30:57.449Z,12.10
2018-07-01T03:33:25.328Z,12.00
2018-07-01T03:35:53.265Z,11.90
2018-07-01T03:38:21.141Z,12.00
2018-07-01T03:40:48.912Z,12.00
2018-07-01T03:43:16.841Z,12.10
2018-07-01T03:45:44.694Z,12.10
2018-07-01T03:48:12.629Z,12.10
2018-07-01T03:50:40.499Z,12.00
2018-07-01T03:53:08.371Z,11.90
2018-07-01T03:55:36.249Z,11.90
2018-07-01T03:58:04.492Z,12.20
2018-07-01T04:00:32.403Z,12.20
2018-07-01T04:03:00.173Z,12.10
2018-07-01T04:05:28.173Z,12.10
2018-07-01T04:07:56.097Z,12.20
2018-07-01T04:10:23.944Z,12.20
2018-07-01T04:12:51.935Z,12.30
2018-07-01T04:15:19.796Z,12.50
2018-07-01T04:17:47.662Z,12.50
2018-07-01T04:20:15.530Z,12.70
2018-07-01T04:22:43.453Z,12.60
2018-07-01T04:25:11.317Z,12.60
2018-07-01T04:27:39.155Z,12.70
2018-07-01T04:30:07.103Z,12.70
2018-07-01T04:32:35.065Z,12.80
2018-07-01T04:35:02.997Z,13.00
2018-07-01T04:37:30.890Z,13.00
2018-07-01T04:39:58.698Z,13.10
2018-07-01T04:42:26.598Z,13.00
2018-07-01T04:44:54.509Z,13.20
2018-07-01T04:47:22.421Z,13.30
2018-07-01T04:49:50.380Z,13.50
2018-07-01T04:52:18.289Z,13.50
2018-07-01T04:54:46.231Z,13.80
2018-07-01T04:57:14.089Z,14.20
2018-07-01T04:59:41.981Z,15.40
2018-07-01T05:02:09.985Z,16.70
2018-07-01T05:04:37.748Z,17.50
2018-07-01T05:07:05.641Z,18.30
2018-07-01T05:09:33.516Z,19.20
2018-07-01T05:12:01.437Z,20.00
2018-07-01T05:16:57.316Z,20.70
2018-07-01T05:19:25.262Z,21.60
2018-07-01T05:21:53.097Z,23.20
2018-07-01T05:24:21.111Z,23.70
2018-07-01T05:29:16.817Z,24.00
2018-07-01T05:31:44.729Z,24.40
2018-07-01T05:34:12.640Z,25.50
2018-07-01T05:36:40.605Z,24.30
2018-07-01T05:39:10.237Z,25.10
2018-07-01T05:41:38.166Z,26.20
2018-07-01T05:44:06.262Z,25.70
2018-07-01T05:46:34.190Z,25.90
2018-07-01T05:49:02.321Z,26.60
2018-07-01T05:51:30.490Z,26.40
2018-07-01T05:53:58.436Z,25.40
2018-07-01T05:56:26.329Z,25.30
2018-07-01T05:58:54.497Z,24.40
2018-07-01T06:01:22.365Z,23.80
2018-07-01T06:03:50.252Z,23.30
2018-07-01T06:08:46.116Z,23.40
2018-07-01T06:11:13.955Z,23.20
2018-07-01T06:13:41.831Z,21.90
2018-07-01T06:16:09.709Z,22.40
2018-07-01T06:18:37.632Z,22.50
2018-07-01T06:21:05.511Z,22.40
2018-07-01T06:23:33.417Z,22.00
2018-07-01T06:26:01.401Z,22.30
2018-07-01T06:28:29.241Z,21.90
2018-07-01T06:30:57.165Z,22.20
2018-07-01T06:33:25.090Z,22.20
2018-07-01T06:35:53.010Z,23.00
2018-07-01T06:38:21.821Z,23.30
2018-07-01T06:40:51.007Z,22.90
2018-07-01T06:43:21.630Z,22.30
2018-07-01T06:45:51.625Z,21.80
2018-07-01T06:48:21.903Z,22.00
2018-07-01T06:50:51.426Z,21.60
2018-07-01T06:53:21.615Z,21.80
2018-07-01T06:55:52.000Z,21.40
2018-07-01T06:58:21.707Z,21.20
2018-07-01T07:00:51.868Z,22.30
2018-07-01T07:03:21.914Z,22.60
2018-07-01T07:05:50.449Z,22.30
2018-07-01T07:08:18.402Z,22.20
2018-07-01T07:10:46.253Z,22.00
2018-07-01T07:13:14.098Z,21.50
2018-07-01T07:15:42.003Z,21.70
2018-07-01T07:18:09.944Z,21.40
2018-07-01T07:20:37.836Z,21.70
2018-07-01T07:23:06.716Z,21.80
2018-07-01T07:25:34.585Z,21.70
2018-07-01T07:30:30.517Z,21.30
2018-07-01T07:32:58.437Z,21.50
2018-07-01T07:35:26.473Z,21.90
2018-07-01T07:37:54.594Z,21.90
2018-07-01T07:40:22.433Z,21.80
2018-07-01T07:42:50.348Z,21.60
2018-07-01T07:45:18.292Z,21.80
2018-07-01T07:47:46.153Z,21.70
2018-07-01T07:50:14.073Z,21.80
2018-07-01T07:52:42.020Z,21.70
2018-07-01T07:55:09.937Z,21.60
2018-07-01T07:57:37.841Z,21.70
2018-07-01T08:00:05.817Z,21.80
2018-07-01T08:02:33.896Z,21.40
2018-07-01T08:05:02.226Z,21.50
2018-07-01T08:07:30.201Z,21.80
2018-07-01T08:09:58.280Z,21.80
2018-07-01T08:12:26.345Z,21.70
2018-07-01T08:14:54.281Z,21.50
2018-07-01T08:17:22.161Z,21.60
2018-07-01T08:19:50.023Z,21.80
2018-07-01T08:22:17.913Z,21.80
2018-07-01T08:24:45.850Z,21.70
2018-07-01T08:27:13.645Z,21.70
2018-07-01T08:29:41.441Z,21.80
2018-07-01T08:32:09.298Z,21.80
2018-07-01T08:34:37.169Z,21.90
2018-07-01T08:37:05.353Z,21.90
2018-07-01T08:39:33.208Z,21.90
2018-07-01T08:42:34.185Z,22.00
2018-07-01T08:45:03.537Z,22.00
2018-07-01T08:47:32.056Z,21.90
2018-07-01T08:49:59.922Z,22.00
2018-07-01T08:52:27.874Z,22.00
2018-07-01T08:57:23.849Z,22.00
2018-07-01T08:59:51.732Z,22.30
2018-07-01T09:02:20.453Z,22.20
2018-07-01T09:04:48.410Z,22.00
2018-07-01T09:07:17.003Z,21.90
2018-07-01T09:09:45.149Z,22.00
2018-07-01T09:12:13.072Z,22.10
2018-07-01T09:14:41.507Z,22.10
2018-07-01T09:17:09.539Z,22.30
2018-07-01T09:19:37.325Z,22.20
2018-07-01T09:22:05.234Z,22.20
2018-07-01T09:24:33.106Z,22.30
2018-07-01T09:27:01.182Z,22.30
2018-07-01T09:29:29.660Z,22.40
2018-07-01T09:31:57.670Z,22.40
2018-07-01T09:34:26.644Z,22.50
2018-07-01T09:36:55.021Z,22.60
2018-07-01T09:39:23.217Z,22.70
2018-07-01T09:41:52.825Z,22.80
2018-07-01T09:44:20.829Z,22.90
2018-07-01T09:46:48.755Z,23.00
2018-07-01T09:49:16.686Z,23.20
2018-07-01T09:51:44.654Z,23.00
2018-07-01T09:54:12.931Z,23.60
2018-07-01T09:56:42.028Z,23.60
2018-07-01T09:59:10.935Z,23.90
2018-07-01T10:01:40.026Z,24.40
2018-07-01T10:04:07.941Z,25.30
2018-07-01T10:06:35.944Z,27.10
2018-07-01T10:09:08.282Z,28.10
2018-07-01T10:11:36.901Z,28.80
2018-07-01T10:14:06.056Z,29.80
2018-07-01T10:16:34.177Z,30.10
2018-07-01T10:19:02.141Z,30.20
2018-07-01T10:21:30.464Z,30.30
2018-07-01T10:23:58.380Z,29.80
2018-07-01T10:26:26.216Z,30.60
2018-07-01T10:29:06.390Z,30.50
2018-07-01T10:31:35.140Z,31.10
2018-07-01T10:34:03.426Z,31.50
2018-07-01T10:36:31.361Z,31.60
2018-07-01T10:38:59.280Z,31.80
2018-07-01T10:41:27.213Z,32.00
2018-07-01T10:43:56.762Z,32.70
2018-07-01T10:46:24.774Z,31.60
2018-07-01T10:48:52.974Z,32.40
2018-07-01T10:51:20.824Z,32.40
2018-07-01T10:53:48.695Z,32.60
2018-07-01T10:56:16.565Z,32.50
2018-07-01T10:58:44.377Z,32.20
2018-07-01T11:01:12.304Z,32.20
2018-07-01T11:03:40.409Z,32.00
2018-07-01T11:06:08.463Z,32.60
2018-07-01T11:08:36.869Z,33.70
2018-07-01T11:11:05.098Z,32.80
2018-07-01T11:13:33.253Z,32.40
2018-07-01T11:16:01.644Z,31.20
2018-07-01T11:18:30.201Z,32.60
2018-07-01T11:20:59.164Z,34.40
2018-07-01T11:23:27.037Z,34.50
2018-07-01T11:28:22.763Z,33.70
2018-07-01T11:30:50.706Z,33.90
2018-07-01T11:33:18.671Z,33.00
2018-07-01T11:35:46.680Z,33.60
2018-07-01T11:38:15.431Z,33.80
2018-07-01T11:43:12.494Z,34.30
2018-07-01T11:45:40.440Z,33.50
2018-07-01T11:48:08.330Z,34.80
2018-07-01T11:50:36.157Z,34.50
2018-07-01T11:53:04.328Z,33.20
2018-07-01T11:55:32.510Z,33.70
2018-07-01T11:58:00.309Z,34.30
2018-07-01T12:00:28.200Z,33.40
2018-07-01T12:02:56.306Z,33.90
2018-07-01T12:05:24.481Z,33.60
2018-07-01T12:07:52.424Z,32.90
2018-07-01T12:10:20.314Z,32.80
2018-07-01T12:12:49.041Z,34.20
2018-07-01T12:15:17.105Z,34.40
2018-07-01T12:17:45.053Z,33.40
2018-07-01T12:20:12.908Z,33.80
2018-07-01T12:22:40.837Z,33.90
2018-07-01T12:25:08.717Z,34.00
2018-07-01T12:27:36.724Z,35.00
2018-07-01T12:30:06.647Z,33.30
2018-07-01T12:32:34.490Z,32.80
2018-07-01T12:35:02.387Z,33.50
2018-07-01T12:37:30.273Z,33.30
2018-07-01T12:40:00.384Z,32.90
2018-07-01T12:42:28.599Z,32.60
2018-07-01T12:44:56.527Z,32.30
2018-07-01T12:47:24.408Z,32.00
2018-07-01T12:49:52.317Z,32.90
2018-07-01T12:52:20.165Z,33.40
2018-07-01T12:54:48.032Z,32.80
2018-07-01T12:57:15.949Z,32.30
2018-07-01T12:59:43.873Z,32.20
2018-07-01T13:02:11.744Z,33.20
2018-07-01T13:04:39.736Z,32.40
2018-07-01T13:07:08.029Z,32.40
2018-07-01T13:09:36.094Z,33.30
2018-07-01T13:12:04.195Z,32.60
2018-07-01T13:14:32.129Z,33.00
2018-07-01T13:16:59.996Z,32.30
2018-07-01T13:19:28.534Z,32.20
2018-07-01T13:21:56.447Z,32.90
2018-07-01T13:24:24.285Z,31.60
2018-07-01T13:26:52.442Z,31.70
2018-07-01T13:29:20.380Z,32.20
2018-07-01T13:31:48.432Z,31.60
2018-07-01T13:34:16.262Z,30.80
2018-07-01T13:36:44.161Z,31.50
2018-07-01T13:39:12.285Z,30.60
2018-07-01T13:41:40.145Z,31.10
2018-07-01T13:44:08.243Z,30.40
2018-07-01T13:46:36.519Z,31.10
2018-07-01T13:49:05.235Z,30.90
2018-07-01T13:51:33.153Z,30.20
2018-07-01T13:54:01.121Z,29.90
2018-07-01T13:58:57.204Z,30.00
2018-07-01T14:01:25.311Z,30.10
2018-07-01T14:03:53.300Z,29.70
2018-07-01T14:06:21.220Z,29.90
2018-07-01T14:11:17.459Z,28.90
2018-07-01T14:13:45.343Z,29.50
2018-07-01T14:18:41.126Z,29.20
2018-07-01T14:21:09.080Z,28.90
2018-07-01T14:23:37.104Z,28.90
2018-07-01T14:26:05.058Z,28.70
2018-07-01T14:28:33.018Z,29.20
2018-07-01T14:31:00.869Z,29.40
2018-07-01T14:33:28.970Z,28.40
2018-07-01T14:35:56.852Z,27.90
2018-07-01T14:38:24.677Z,27.80
2018-07-01T14:40:52.569Z,27.90
2018-07-01T14:43:20.975Z,27.90
2018-07-01T14:45:48.873Z,27.80
2018-07-01T14:48:16.772Z,27.30
2018-07-01T14:50:44.901Z,27.30
2018-07-01T14:53:12.757Z,27.30
2018-07-01T14:55:40.641Z,27.10
2018-07-01T14:58:08.838Z,27.30
2018-07-01T15:00:36.777Z,27.00
2018-07-01T15:03:04.853Z,27.10
2018-07-01T15:05:32.817Z,26.90
2018-07-01T15:08:00.717Z,26.70
2018-07-01T15:10:28.654Z,26.80
2018-07-01T15:12:56.553Z,26.70
2018-07-01T15:15:24.566Z,26.60
2018-07-01T15:17:52.497Z,26.60
2018-07-01T15:20:20.604Z,26.60
2018-07-01T15:22:48.515Z,26.70
2018-07-01T15:25:16.448Z,27.00
2018-07-01T15:27:44.340Z,27.00
2018-07-01T15:30:12.189Z,27.10
2018-07-01T15:32:40.157Z,26.90
2018-07-01T15:35:08.005Z,26.60
2018-07-01T15:37:35.856Z,26.60
2018-07-01T15:40:04.361Z,26.80
2018-07-01T15:42:32.175Z,26.90
2018-07-01T15:45:00.140Z,27.10
2018-07-01T15:47:28.037Z,27.00
2018-07-01T15:49:55.868Z,27.00
2018-07-01T15:52:23.752Z,26.80
2018-07-01T15:54:51.709Z,26.80
2018-07-01T15:57:19.600Z,26.60
2018-07-01T15:59:47.890Z,26.50
2018-07-01T16:02:15.801Z,26.60
2018-07-01T16:04:43.769Z,26.70
2018-07-01T16:07:11.742Z,26.40
2018-07-01T16:09:39.701Z,26.20
2018-07-01T16:12:07.645Z,26.30
2018-07-01T16:14:35.509Z,26.40
2018-07-01T16:17:03.449Z,26.40
2018-07-01T16:19:31.329Z,26.30
2018-07-01T16:21:59.260Z,26.20
2018-07-01T16:24:27.182Z,26.00
2018-07-01T16:26:56.512Z,26.10
2018-07-01T16:29:24.333Z,26.20
2018-07-01T16:31:52.247Z,26.30
2018-07-01T16:34:20.207Z,26.10
2018-07-01T16:36:48.102Z,26.20
2018-07-01T16:39:15.976Z,26.10
2018-07-01T16:41:43.825Z,26.00
2018-07-01T16:44:11.703Z,26.00
2018-07-01T16:46:39.666Z,25.90
2018-07-01T16:49:07.506Z,26.00
2018-07-01T16:51:35.310Z,25.90
2018-07-01T16:54:03.382Z,25.90
2018-07-01T16:56:31.289Z,25.90
2018-07-01T16:58:59.168Z,25.80
2018-07-01T17:01:27.080Z,25.70
2018-07-01T17:03:55.018Z,25.70
2018-07-01T17:06:22.921Z,25.60
2018-07-01T17:08:50.886Z,25.50
2018-07-01T17:11:18.822Z,25.50
2018-07-01T17:13:46.745Z,25.50
2018-07-01T17:16:14.637Z,25.50
2018-07-01T17:18:42.500Z,25.40
2018-07-01T17:21:10.613Z,25.50
2018-07-01T17:23:38.577Z,25.30
2018-07-01T17:26:06.649Z,25.30
2018-07-01T17:28:34.537Z,25.30
2018-07-01T17:31:08.010Z,25.30
2018-07-01T17:33:36.212Z,25.30
2018-07-01T17:36:04.837Z,25.20
2018-07-01T17:41:00.771Z,25.10
2018-07-01T17:43:28.621Z,25.00
2018-07-01T17:45:56.552Z,24.90
2018-07-01T17:48:24.389Z,24.80
2018-07-01T17:50:54.161Z,24.80
2018-07-01T17:53:39.556Z,24.80
2018-07-01T17:56:07.509Z,24.80
2018-07-01T17:58:35.461Z,24.80
2018-07-01T18:01:03.376Z,24.60
2018-07-01T18:03:31.217Z,24.60
2018-07-01T18:05:59.633Z,24.50
2018-07-01T18:08:27.816Z,24.40
2018-07-01T18:10:56.197Z,24.50
2018-07-01T18:13:24.586Z,24.40
2018-07-01T18:15:55.382Z,24.40
2018-07-01T18:18:23.704Z,24.30
2018-07-01T18:20:51.983Z,24.20
2018-07-01T18:25:51.000Z,24.10
2018-07-01T18:28:34.109Z,24.00
2018-07-01T18:30:49.818Z,23.90
2018-07-01T18:33:18.094Z,23.90
2018-07-01T18:35:46.479Z,23.90
2018-07-01T18:38:14.865Z,23.80
2018-07-01T18:40:43.145Z,23.80
2018-07-01T18:43:11.633Z,23.70
2018-07-01T18:45:43.114Z,23.60
2018-07-01T18:48:11.571Z,23.60
2018-07-01T18:50:39.952Z,23.50
2018-07-01T18:53:08.231Z,23.50
2018-07-01T18:55:36.819Z,23.40
2018-07-01T18:58:06.157Z,23.30
2018-07-01T19:00:34.506Z,23.20
2018-07-01T19:03:03.445Z,23.10
2018-07-01T19:05:33.019Z,23.00
2018-07-01T19:08:01.295Z,23.00
2018-07-01T19:10:29.779Z,22.90
2018-07-01T19:12:59.675Z,22.70
2018-07-01T19:15:28.289Z,22.60
2018-07-01T19:17:56.667Z,22.50
2018-07-01T19:20:25.096Z,22.50
2018-07-01T19:22:53.841Z,22.40
2018-07-01T19:25:22.156Z,22.30
2018-07-01T19:27:50.614Z,22.20
2018-07-01T19:30:18.997Z,22.00
2018-07-01T19:32:47.381Z,21.90
2018-07-01T19:35:15.765Z,21.80
2018-07-01T19:37:44.149Z,21.70
2018-07-01T19:40:12.431Z,21.60
2018-07-01T19:42:41.002Z,21.50
2018-07-01T19:45:09.294Z,21.40
2018-07-01T19:47:37.580Z,21.30
2018-07-01T19:50:05.963Z,21.10
2018-07-01T19:52:34.243Z,21.00
2018-07-01T19:55:02.623Z,20.90
2018-07-01T19:57:31.012Z,20.90
2018-07-01T19:59:59.292Z,20.90
2018-07-01T20:02:28.186Z,20.70
2018-07-01T20:04:56.669Z,20.70
2018-07-01T20:07:24.954Z,20.60
2018-07-01T20:09:55.398Z,20.60
2018-07-01T20:12:23.972Z,20.50
2018-07-01T20:14:52.659Z,20.40
2018-07-01T20:17:28.398Z,20.30
2018-07-01T20:19:56.573Z,20.20
2018-07-01T20:24:53.249Z,20.00
2018-07-01T20:27:21.193Z,19.90
2018-07-01T20:29:49.071Z,19.90
2018-07-01T20:32:17.037Z,19.80
2018-07-01T20:34:45.993Z,19.70
2018-07-01T20:37:13.947Z,19.60
2018-07-01T20:39:41.833Z,19.50
2018-07-01T20:42:10.906Z,19.40
2018-07-01T20:44:39.689Z,19.30
2018-07-01T20:47:13.146Z,19.30
2018-07-01T20:49:41.132Z,19.20
2018-07-01T20:54:36.881Z,19.20
2018-07-01T20:57:04.850Z,19.00
2018-07-01T20:59:32.724Z,18.90
2018-07-01T21:02:00.508Z,18.90
2018-07-01T21:04:28.463Z,18.90
2018-07-01T21:06:57.065Z,18.70
2018-07-01T21:09:24.935Z,18.60
2018-07-01T21:11:55.277Z,18.70
2018-07-01T21:14:23.301Z,18.60
2018-07-01T21:16:51.249Z,18.50
2018-07-01T21:19:19.137Z,18.50
2018-07-01T21:21:49.706Z,18.40
2018-07-01T21:24:17.565Z,18.30
2018-07-01T21:26:45.422Z,18.20
2018-07-01T21:29:13.292Z,18.20
2018-07-01T21:31:41.136Z,18.20
2018-07-01T21:34:09.032Z,18.10
2018-07-01T21:36:37.000Z,18.00
2018-07-01T21:39:08.645Z,18.00
2018-07-01T21:41:37.168Z,17.90
2018-07-01T21:44:05.289Z,17.90
2018-07-01T21:46:33.180Z,17.80
2018-07-01T21:49:00.998Z,17.80
2018-07-01T21:51:28.912Z,17.70
2018-07-01T21:53:57.061Z,17.60
2018-07-01T21:56:26.602Z,17.60
2018-07-01T21:58:54.857Z,17.60
2018-07-01T22:01:22.860Z,17.40
2018-07-01T22:03:51.187Z,17.50
2018-07-01T22:06:19.140Z,17.40
2018-07-01T22:08:47.111Z,17.30
2018-07-01T22:12:00.261Z,17.20
2018-07-01T22:14:38.672Z,17.30
2018-07-01T22:17:09.629Z,17.10
2018-07-01T22:19:37.896Z,17.10
2018-07-01T22:22:06.025Z,17.10
2018-07-01T22:24:35.000Z,17.00
2018-07-01T22:27:02.909Z,17.00
2018-07-01T22:29:30.824Z,16.90
2018-07-01T22:31:58.776Z,16.90
2018-07-01T22:34:26.677Z,16.80
2018-07-01T22:36:54.858Z,16.70
2018-07-01T22:39:26.961Z,16.60
2018-07-01T22:41:55.846Z,16.50
2018-07-01T22:44:23.845Z,16.50
2018-07-01T22:46:52.281Z,16.40
2018-07-01T22:49:20.193Z,16.40
2018-07-01T22:51:48.105Z,16.50
2018-07-01T22:54:16.045Z,16.30
2018-07-01T22:56:43.893Z,16.30
2018-07-01T22:59:11.797Z,16.20
2018-07-01T23:01:57.493Z,16.00
2018-07-01T23:04:25.365Z,16.00
2018-07-01T23:06:53.421Z,16.00
2018-07-01T23:09:21.289Z,15.90
2018-07-01T23:11:49.127Z,16.00
2018-07-01T23:14:17.029Z,15.90
2018-07-01T23:16:44.913Z,15.90
2018-07-01T23:19:12.769Z,15.70
2018-07-01T23:21:40.649Z,15.70
2018-07-01T23:24:08.538Z,15.80
2018-07-01T23:26:36.425Z,16.00
2018-07-01T23:29:04.369Z,15.70
2018-07-01T23:31:32.248Z,15.60
2018-07-01T23:36:28.026Z,15.80
2018-07-01T23:38:55.890Z,15.60
2018-07-01T23:41:23.805Z,15.70
2018-07-01T23:43:51.709Z,15.60
2018-07-01T23:46:19.652Z,15.60
2018-07-01T23:48:47.540Z,15.40
2018-07-01T23:51:15.480Z,15.50
2018-07-01T23:53:43.313Z,15.30
2018-07-01T23:56:11.262Z,15.20
2018-07-01T23:58:39.170Z,15.10
